Lanigan, Canada
Current Conditions -  °F | °C
As of 9:00 PM on Saturday 25 Oct 2014 (Local Time) from CYXE Reporting Station
Scattered Clouds Scattered Clouds  
Wind Chill: 34°   Ceiling: Unl
Heat Index: 41°   Visibility: 15mi
Dew Point: 28°   Wind: 12mph
Humidity: 61%   Direction: 110°ESE
Pressure: 29.82"   Gusts: NA
Location:  51.85°N, 105.03°W
Report Text: CYXE 260300Z 11010KT 15SM SCT180 05/M02 A2982 RMK AC4 SLP123
Loading
Personal Weather Stations






























Interactive Weather Map
Tropical Storm Tracking
New forecast layout! Learn more

10-Day Weather Forecast

Advertisements
Track Severe Weather on mobile